Fayette, OH (43521)

11:37 AM EST on December 05, 2016 (GMT -0500)
KD8WSL | | Change Station

Elev 784 ft 41.74 °N, 84.23 °W | Updated 31 seconds ago

Overcast
Overcast
36.3 °F
Feels Like 36 °F
N
0.0
Wind Variable Wind from South
Gusts 10.0 mph

Today
High -- | Low -- °F
--% Chance of Precip.
Yesterday
High -- | Low -- °F
Precip. -- in
Pressure 30.08 in
Visibility 9.0 miles
Clouds Overcast 2000 ft
Windchill 36 °F
Dew Point 33 °F
Humidity 89%
Rainfall 0.11 in
Snow Depth Not available.
7:49 AM 5:06 PM
Waxing Crescent, 33% visible
METAR KUSE 051615Z AUTO 22011KT 9SM OVC020 02/00 A3008 RMK AO2
Pressure 30.08 in
Visibility 9.0 miles
Clouds Overcast 2000 ft
Windchill 36 °F
Dew Point 33 °F
Humidity 89%
Rainfall 0.11 in
Snow Depth Not available.
7:49 AM 5:06 PM
Waxing Crescent, 33% visible
METAR KUSE 051615Z AUTO 22011KT 9SM OVC020 02/00 A3008 RMK AO2

10-Day Weather Forecast

Almanac

Astronomy

Dec. 05, 2016 Rise Set
Actual Time
Civil Twilight
Nautical Twilight
Astronomical Twilight
Moon
Length of Visible Light
Length of Day
Tomorrow will be .
, % of the Moon is Illuminated

Today's Extremes

State Highs State Lows

Community

WunderPhotos

Upload Photos

1,955,819 photos uploaded!

WunderBlog® & News

Nearby

Air Quality

  Air Quality AQ Index Pollutant
Not available.

Snow Depth

Station Depth Elevation

Earthquake Activity

City Distance Mag. Time & Date
Minimum magnitude displayed is 2.5.

Coastal Water Temperatures

Place Temperature

Stations

Nearby Weather Stations

Station Location Temp. Windchill Dew Point Humidity Wind Precip. Elev Updated Type
                   

Watches & Warnings

There are currently no watches in effect.